sensor_id;sensor_type;location;lat;lon;timestamp;temperature;humidity
17154;DHT22;8692;52.164;7.558;2023-07-13T00:01:55;17.70;99.90
17154;DHT22;8692;52.164;7.558;2023-07-13T00:04:25;17.70;99.90
17154;DHT22;8692;52.164;7.558;2023-07-13T00:06:53;17.60;99.90
17154;DHT22;8692;52.164;7.558;2023-07-13T00:09:21;17.60;99.90
17154;DHT22;8692;52.164;7.558;2023-07-13T00:11:51;17.60;99.90
17154;DHT22;8692;52.164;7.558;2023-07-13T00:14:20;17.60;99.90
17154;DHT22;8692;52.164;7.558;2023-07-13T00:16:48;17.60;99.90
17154;DHT22;8692;52.164;7.558;2023-07-13T00:19:16;17.50;99.90
17154;DHT22;8692;52.164;7.558;2023-07-13T00:21:46;17.50;99.90
17154;DHT22;8692;52.164;7.558;2023-07-13T00:24:17;17.50;99.90
17154;DHT22;8692;52.164;7.558;2023-07-13T00:26:51;17.40;99.90
17154;DHT22;8692;52.164;7.558;2023-07-13T00:29:19;17.40;99.90
17154;DHT22;8692;52.164;7.558;2023-07-13T00:31:47;17.40;99.90
17154;DHT22;8692;52.164;7.558;2023-07-13T00:34:16;17.30;99.90
17154;DHT22;8692;52.164;7.558;2023-07-13T00:36:45;17.30;99.90
17154;DHT22;8692;52.164;7.558;2023-07-13T00:39:13;17.20;99.90
17154;DHT22;8692;52.164;7.558;2023-07-13T00:41:41;17.20;99.90
17154;DHT22;8692;52.164;7.558;2023-07-13T00:44:13;17.20;99.90
17154;DHT22;8692;52.164;7.558;2023-07-13T00:46:42;17.20;99.90
17154;DHT22;8692;52.164;7.558;2023-07-13T00:49:13;17.20;99.90
17154;DHT22;8692;52.164;7.558;2023-07-13T00:51:47;17.20;99.90
17154;DHT22;8692;52.164;7.558;2023-07-13T00:54:19;17.10;99.90
17154;DHT22;8692;52.164;7.558;2023-07-13T00:56:50;17.10;99.90
17154;DHT22;8692;52.164;7.558;2023-07-13T00:59:21;17.10;99.90
17154;DHT22;8692;52.164;7.558;2023-07-13T01:01:49;17.10;99.90
17154;DHT22;8692;52.164;7.558;2023-07-13T01:04:18;17.00;99.90
17154;DHT22;8692;52.164;7.558;2023-07-13T01:06:47;17.00;99.90
17154;DHT22;8692;52.164;7.558;2023-07-13T01:09:15;16.90;99.90
17154;DHT22;8692;52.164;7.558;2023-07-13T01:11:44;16.90;99.90
17154;DHT22;8692;52.164;7.558;2023-07-13T01:14:12;16.90;99.90
17154;DHT22;8692;52.164;7.558;2023-07-13T01:16:44;16.90;99.90
17154;DHT22;8692;52.164;7.558;2023-07-13T01:19:22;16.90;99.90
17154;DHT22;8692;52.164;7.558;2023-07-13T01:21:53;16.80;99.90
17154;DHT22;8692;52.164;7.558;2023-07-13T01:24:21;16.80;99.90
17154;DHT22;8692;52.164;7.558;2023-07-13T01:26:49;16.80;99.90
17154;DHT22;8692;52.164;7.558;2023-07-13T01:29:17;16.80;99.90
17154;DHT22;8692;52.164;7.558;2023-07-13T01:31:45;16.70;99.90
17154;DHT22;8692;52.164;7.558;2023-07-13T01:34:13;16.70;99.90
17154;DHT22;8692;52.164;7.558;2023-07-13T01:36:41;16.70;99.90
17154;DHT22;8692;52.164;7.558;2023-07-13T01:39:10;16.70;99.90
17154;DHT22;8692;52.164;7.558;2023-07-13T01:41:39;16.60;99.90
17154;DHT22;8692;52.164;7.558;2023-07-13T01:44:07;16.60;99.90
17154;DHT22;8692;52.164;7.558;2023-07-13T01:46:35;16.60;99.90
17154;DHT22;8692;52.164;7.558;2023-07-13T01:49:03;16.60;99.90
17154;DHT22;8692;52.164;7.558;2023-07-13T01:51:31;16.60;99.90
17154;DHT22;8692;52.164;7.558;2023-07-13T01:53:59;16.60;99.90
17154;DHT22;8692;52.164;7.558;2023-07-13T01:56:28;16.60;99.90
17154;DHT22;8692;52.164;7.558;2023-07-13T01:58:56;16.60;99.90
17154;DHT22;8692;52.164;7.558;2023-07-13T02:01:24;16.50;99.90
17154;DHT22;8692;52.164;7.558;2023-07-13T02:03:53;16.50;99.90
17154;DHT22;8692;52.164;7.558;2023-07-13T02:06:21;16.50;99.90
17154;DHT22;8692;52.164;7.558;2023-07-13T02:08:49;16.50;99.90
17154;DHT22;8692;52.164;7.558;2023-07-13T02:11:17;16.50;99.90
17154;DHT22;8692;52.164;7.558;2023-07-13T02:13:47;16.40;99.90
17154;DHT22;8692;52.164;7.558;2023-07-13T02:16:15;16.40;99.90
17154;DHT22;8692;52.164;7.558;2023-07-13T02:18:43;16.40;99.90
17154;DHT22;8692;52.164;7.558;2023-07-13T02:21:11;16.40;99.90
17154;DHT22;8692;52.164;7.558;2023-07-13T02:23:39;16.40;99.90
17154;DHT22;8692;52.164;7.558;2023-07-13T02:26:07;16.40;99.90
17154;DHT22;8692;52.164;7.558;2023-07-13T02:28:36;16.40;99.90
17154;DHT22;8692;52.164;7.558;2023-07-13T02:31:07;16.40;99.90
17154;DHT22;8692;52.164;7.558;2023-07-13T02:33:35;16.30;99.90
17154;DHT22;8692;52.164;7.558;2023-07-13T02:36:04;16.30;99.90
17154;DHT22;8692;52.164;7.558;2023-07-13T02:38:32;16.30;99.90
17154;DHT22;8692;52.164;7.558;2023-07-13T02:41:02;16.30;99.90
17154;DHT22;8692;52.164;7.558;2023-07-13T02:43:30;16.30;99.90
17154;DHT22;8692;52.164;7.558;2023-07-13T02:45:58;16.30;99.90
17154;DHT22;8692;52.164;7.558;2023-07-13T02:48:32;16.30;99.90
17154;DHT22;8692;52.164;7.558;2023-07-13T02:51:00;16.30;99.90
17154;DHT22;8692;52.164;7.558;2023-07-13T02:53:28;16.30;99.90
17154;DHT22;8692;52.164;7.558;2023-07-13T02:55:56;16.30;99.90
17154;DHT22;8692;52.164;7.558;2023-07-13T02:58:24;16.30;99.90
17154;DHT22;8692;52.164;7.558;2023-07-13T03:00:53;16.30;99.90
17154;DHT22;8692;52.164;7.558;2023-07-13T03:03:21;16.30;99.90
17154;DHT22;8692;52.164;7.558;2023-07-13T03:05:58;16.30;99.90
17154;DHT22;8692;52.164;7.558;2023-07-13T03:08:30;16.30;99.90
17154;DHT22;8692;52.164;7.558;2023-07-13T03:10:59;16.20;99.90
17154;DHT22;8692;52.164;7.558;2023-07-13T03:13:31;16.20;99.90
17154;DHT22;8692;52.164;7.558;2023-07-13T03:15:59;16.20;99.90
17154;DHT22;8692;52.164;7.558;2023-07-13T03:18:28;16.20;99.90
17154;DHT22;8692;52.164;7.558;2023-07-13T03:21:02;16.20;99.90
17154;DHT22;8692;52.164;7.558;2023-07-13T03:23:30;16.10;99.90
17154;DHT22;8692;52.164;7.558;2023-07-13T03:26:05;16.10;99.90
17154;DHT22;8692;52.164;7.558;2023-07-13T03:28:34;16.10;99.90
17154;DHT22;8692;52.164;7.558;2023-07-13T03:31:04;16.10;99.90
17154;DHT22;8692;52.164;7.558;2023-07-13T03:33:32;16.00;99.90
17154;DHT22;8692;52.164;7.558;2023-07-13T03:36:03;16.00;99.90
17154;DHT22;8692;52.164;7.558;2023-07-13T03:38:32;16.00;99.90
17154;DHT22;8692;52.164;7.558;2023-07-13T03:41:02;16.00;99.90
17154;DHT22;8692;52.164;7.558;2023-07-13T03:43:31;16.00;99.90
17154;DHT22;8692;52.164;7.558;2023-07-13T03:45:58;16.00;99.90
17154;DHT22;8692;52.164;7.558;2023-07-13T03:48:27;16.00;99.90
17154;DHT22;8692;52.164;7.558;2023-07-13T03:50:55;15.90;99.90
17154;DHT22;8692;52.164;7.558;2023-07-13T03:53:25;15.90;99.90
17154;DHT22;8692;52.164;7.558;2023-07-13T03:55:53;15.90;99.90
17154;DHT22;8692;52.164;7.558;2023-07-13T03:58:30;15.90;99.90
17154;DHT22;8692;52.164;7.558;2023-07-13T04:01:07;15.90;99.90
17154;DHT22;8692;52.164;7.558;2023-07-13T04:03:35;15.90;99.90
17154;DHT22;8692;52.164;7.558;2023-07-13T04:06:05;15.90;99.90
17154;DHT22;8692;52.164;7.558;2023-07-13T04:08:36;15.90;99.90
17154;DHT22;8692;52.164;7.558;2023-07-13T04:11:05;15.90;99.90
17154;DHT22;8692;52.164;7.558;2023-07-13T04:13:33;15.90;99.90
17154;DHT22;8692;52.164;7.558;2023-07-13T04:16:01;15.90;99.90
17154;DHT22;8692;52.164;7.558;2023-07-13T04:18:29;15.90;99.90
17154;DHT22;8692;52.164;7.558;2023-07-13T04:20:57;16.00;99.90
17154;DHT22;8692;52.164;7.558;2023-07-13T04:23:25;16.00;99.90
17154;DHT22;8692;52.164;7.558;2023-07-13T04:25:54;16.00;99.90
17154;DHT22;8692;52.164;7.558;2023-07-13T04:28:24;16.00;99.90
17154;DHT22;8692;52.164;7.558;2023-07-13T04:30:52;16.00;99.90
17154;DHT22;8692;52.164;7.558;2023-07-13T04:33:20;16.00;99.90
17154;DHT22;8692;52.164;7.558;2023-07-13T04:35:50;16.00;99.90
17154;DHT22;8692;52.164;7.558;2023-07-13T04:38:24;16.00;99.90
17154;DHT22;8692;52.164;7.558;2023-07-13T04:40:55;16.00;99.90
17154;DHT22;8692;52.164;7.558;2023-07-13T04:43:23;16.00;99.90
17154;DHT22;8692;52.164;7.558;2023-07-13T04:45:52;16.00;99.90
17154;DHT22;8692;52.164;7.558;2023-07-13T04:48:20;16.10;99.90
17154;DHT22;8692;52.164;7.558;2023-07-13T04:50:54;16.10;99.90
17154;DHT22;8692;52.164;7.558;2023-07-13T04:53:22;16.20;99.90
17154;DHT22;8692;52.164;7.558;2023-07-13T04:55:50;16.20;99.90
17154;DHT22;8692;52.164;7.558;2023-07-13T04:58:21;16.20;99.90
17154;DHT22;8692;52.164;7.558;2023-07-13T05:00:49;16.30;99.90
17154;DHT22;8692;52.164;7.558;2023-07-13T05:03:17;16.30;99.90
17154;DHT22;8692;52.164;7.558;2023-07-13T05:05:55;16.30;99.90
17154;DHT22;8692;52.164;7.558;2023-07-13T05:08:23;16.40;99.90
17154;DHT22;8692;52.164;7.558;2023-07-13T05:10:52;16.40;99.90
17154;DHT22;8692;52.164;7.558;2023-07-13T05:13:22;16.40;99.90
17154;DHT22;8692;52.164;7.558;2023-07-13T05:15:56;16.40;99.90
17154;DHT22;8692;52.164;7.558;2023-07-13T05:18:25;16.50;99.90
17154;DHT22;8692;52.164;7.558;2023-07-13T05:21:01;16.40;99.90
17154;DHT22;8692;52.164;7.558;2023-07-13T05:23:30;16.40;99.90
17154;DHT22;8692;52.164;7.558;2023-07-13T05:25:59;16.40;99.90
17154;DHT22;8692;52.164;7.558;2023-07-13T05:28:30;16.40;99.90
17154;DHT22;8692;52.164;7.558;2023-07-13T05:30:59;16.40;99.90
17154;DHT22;8692;52.164;7.558;2023-07-13T05:33:27;16.40;99.90
17154;DHT22;8692;52.164;7.558;2023-07-13T05:35:55;16.40;99.90
17154;DHT22;8692;52.164;7.558;2023-07-13T05:38:23;16.50;99.90
17154;DHT22;8692;52.164;7.558;2023-07-13T05:40:53;16.60;99.90
17154;DHT22;8692;52.164;7.558;2023-07-13T05:43:22;16.60;99.90
17154;DHT22;8692;52.164;7.558;2023-07-13T05:45:53;16.70;99.90
17154;DHT22;8692;52.164;7.558;2023-07-13T05:48:21;16.70;99.90
17154;DHT22;8692;52.164;7.558;2023-07-13T05:50:49;16.80;99.90
17154;DHT22;8692;52.164;7.558;2023-07-13T05:53:17;16.80;99.90
17154;DHT22;8692;52.164;7.558;2023-07-13T05:55:46;16.90;99.90
17154;DHT22;8692;52.164;7.558;2023-07-13T05:58:16;16.90;99.90
17154;DHT22;8692;52.164;7.558;2023-07-13T06:00:44;17.00;99.90
17154;DHT22;8692;52.164;7.558;2023-07-13T06:03:14;17.10;99.90
17154;DHT22;8692;52.164;7.558;2023-07-13T06:05:43;17.10;99.90
17154;DHT22;8692;52.164;7.558;2023-07-13T06:08:11;17.10;99.90
17154;DHT22;8692;52.164;7.558;2023-07-13T06:10:39;17.20;99.90
17154;DHT22;8692;52.164;7.558;2023-07-13T06:13:07;17.20;99.90
17154;DHT22;8692;52.164;7.558;2023-07-13T06:15:34;17.20;99.90
17154;DHT22;8692;52.164;7.558;2023-07-13T06:18:03;17.30;99.90
17154;DHT22;8692;52.164;7.558;2023-07-13T06:20:33;17.30;99.90
17154;DHT22;8692;52.164;7.558;2023-07-13T06:23:01;17.40;99.90
17154;DHT22;8692;52.164;7.558;2023-07-13T06:25:29;17.50;99.90
17154;DHT22;8692;52.164;7.558;2023-07-13T06:27:57;17.50;99.90
17154;DHT22;8692;52.164;7.558;2023-07-13T06:30:25;17.50;99.90
17154;DHT22;8692;52.164;7.558;2023-07-13T06:32:54;17.60;99.90
17154;DHT22;8692;52.164;7.558;2023-07-13T06:35:22;17.60;99.90
17154;DHT22;8692;52.164;7.558;2023-07-13T06:37:51;17.60;99.90
17154;DHT22;8692;52.164;7.558;2023-07-13T06:40:19;17.70;99.90
17154;DHT22;8692;52.164;7.558;2023-07-13T06:42:47;17.70;99.90
17154;DHT22;8692;52.164;7.558;2023-07-13T06:45:15;17.80;99.90
17154;DHT22;8692;52.164;7.558;2023-07-13T06:47:43;17.80;99.90
17154;DHT22;8692;52.164;7.558;2023-07-13T06:50:11;17.90;99.90
17154;DHT22;8692;52.164;7.558;2023-07-13T06:52:39;18.00;99.90
17154;DHT22;8692;52.164;7.558;2023-07-13T06:55:09;18.00;99.90
17154;DHT22;8692;52.164;7.558;2023-07-13T06:57:37;18.10;99.90
17154;DHT22;8692;52.164;7.558;2023-07-13T07:00:06;18.10;99.90
17154;DHT22;8692;52.164;7.558;2023-07-13T07:02:36;18.20;99.90
17154;DHT22;8692;52.164;7.558;2023-07-13T07:05:05;18.20;99.90
17154;DHT22;8692;52.164;7.558;2023-07-13T07:07:33;18.30;99.90
17154;DHT22;8692;52.164;7.558;2023-07-13T07:10:01;18.30;99.90
17154;DHT22;8692;52.164;7.558;2023-07-13T07:12:31;18.30;99.90
17154;DHT22;8692;52.164;7.558;2023-07-13T07:14:59;18.40;99.90
17154;DHT22;8692;52.164;7.558;2023-07-13T07:17:27;18.40;99.90
17154;DHT22;8692;52.164;7.558;2023-07-13T07:19:55;18.50;99.90
17154;DHT22;8692;52.164;7.558;2023-07-13T07:22:23;18.60;99.90
17154;DHT22;8692;52.164;7.558;2023-07-13T07:24:54;18.60;99.90
17154;DHT22;8692;52.164;7.558;2023-07-13T07:27:22;18.70;99.90
17154;DHT22;8692;52.164;7.558;2023-07-13T07:29:54;18.80;99.90
17154;DHT22;8692;52.164;7.558;2023-07-13T07:32:29;18.80;99.90
17154;DHT22;8692;52.164;7.558;2023-07-13T07:35:17;18.90;99.90
17154;DHT22;8692;52.164;7.558;2023-07-13T07:37:45;19.00;99.90
17154;DHT22;8692;52.164;7.558;2023-07-13T07:40:16;19.10;99.90
17154;DHT22;8692;52.164;7.558;2023-07-13T07:42:47;19.10;99.90
17154;DHT22;8692;52.164;7.558;2023-07-13T07:45:16;19.20;99.90
17154;DHT22;8692;52.164;7.558;2023-07-13T07:47:44;19.20;99.90
17154;DHT22;8692;52.164;7.558;2023-07-13T07:50:12;19.30;99.90
17154;DHT22;8692;52.164;7.558;2023-07-13T07:52:41;19.40;99.90
17154;DHT22;8692;52.164;7.558;2023-07-13T07:55:10;19.40;99.90
17154;DHT22;8692;52.164;7.558;2023-07-13T07:57:41;19.50;99.90
17154;DHT22;8692;52.164;7.558;2023-07-13T08:00:13;19.60;99.90
17154;DHT22;8692;52.164;7.558;2023-07-13T08:02:47;19.70;99.90
17154;DHT22;8692;52.164;7.558;2023-07-13T08:05:18;19.70;99.90
17154;DHT22;8692;52.164;7.558;2023-07-13T08:08:05;19.90;99.90
17154;DHT22;8692;52.164;7.558;2023-07-13T08:10:35;19.90;99.90
17154;DHT22;8692;52.164;7.558;2023-07-13T08:13:03;20.00;99.90
17154;DHT22;8692;52.164;7.558;2023-07-13T08:15:34;20.10;99.90
17154;DHT22;8692;52.164;7.558;2023-07-13T08:18:03;20.10;99.90
17154;DHT22;8692;52.164;7.558;2023-07-13T08:20:31;20.20;99.90
17154;DHT22;8692;52.164;7.558;2023-07-13T08:23:00;20.20;99.90
17154;DHT22;8692;52.164;7.558;2023-07-13T08:25:28;20.30;99.90
17154;DHT22;8692;52.164;7.558;2023-07-13T08:27:56;20.30;99.90
17154;DHT22;8692;52.164;7.558;2023-07-13T08:30:24;20.30;99.90
17154;DHT22;8692;52.164;7.558;2023-07-13T08:32:53;20.40;99.90
17154;DHT22;8692;52.164;7.558;2023-07-13T08:35:22;20.40;99.90
17154;DHT22;8692;52.164;7.558;2023-07-13T08:37:52;20.50;99.90
17154;DHT22;8692;52.164;7.558;2023-07-13T08:40:24;20.50;99.90
17154;DHT22;8692;52.164;7.558;2023-07-13T08:42:55;20.60;99.90
17154;DHT22;8692;52.164;7.558;2023-07-13T08:45:25;20.70;99.90
17154;DHT22;8692;52.164;7.558;2023-07-13T08:48:02;20.80;99.90
17154;DHT22;8692;52.164;7.558;2023-07-13T08:50:42;20.90;99.90
17154;DHT22;8692;52.164;7.558;2023-07-13T08:53:31;20.90;99.90
17154;DHT22;8692;52.164;7.558;2023-07-13T08:56:01;21.10;99.90
17154;DHT22;8692;52.164;7.558;2023-07-13T08:58:30;21.10;99.90
17154;DHT22;8692;52.164;7.558;2023-07-13T09:01:09;21.20;99.90
17154;DHT22;8692;52.164;7.558;2023-07-13T09:03:46;21.30;99.90
17154;DHT22;8692;52.164;7.558;2023-07-13T09:06:16;21.40;99.90
17154;DHT22;8692;52.164;7.558;2023-07-13T09:08:53;21.40;99.90
17154;DHT22;8692;52.164;7.558;2023-07-13T09:11:34;21.40;99.90
17154;DHT22;8692;52.164;7.558;2023-07-13T09:14:16;21.50;99.90
17154;DHT22;8692;52.164;7.558;2023-07-13T09:16:50;21.50;99.90
17154;DHT22;8692;52.164;7.558;2023-07-13T09:19:21;21.60;99.90
17154;DHT22;8692;52.164;7.558;2023-07-13T09:21:54;21.60;99.90
17154;DHT22;8692;52.164;7.558;2023-07-13T09:24:35;21.60;99.90
17154;DHT22;8692;52.164;7.558;2023-07-13T09:27:12;21.70;99.90
17154;DHT22;8692;52.164;7.558;2023-07-13T09:29:47;21.80;99.90
17154;DHT22;8692;52.164;7.558;2023-07-13T09:32:19;21.80;99.90
17154;DHT22;8692;52.164;7.558;2023-07-13T09:34:52;21.90;99.90
17154;DHT22;8692;52.164;7.558;2023-07-13T09:37:28;22.00;99.90
17154;DHT22;8692;52.164;7.558;2023-07-13T09:39:59;22.10;99.90
17154;DHT22;8692;52.164;7.558;2023-07-13T09:42:32;22.20;99.90
17154;DHT22;8692;52.164;7.558;2023-07-13T09:45:02;22.20;99.90
17154;DHT22;8692;52.164;7.558;2023-07-13T09:47:33;22.20;99.90
17154;DHT22;8692;52.164;7.558;2023-07-13T09:50:09;22.20;99.90
17154;DHT22;8692;52.164;7.558;2023-07-13T09:52:43;22.30;99.90
17154;DHT22;8692;52.164;7.558;2023-07-13T09:55:26;22.30;99.90
17154;DHT22;8692;52.164;7.558;2023-07-13T09:57:56;22.40;99.90
17154;DHT22;8692;52.164;7.558;2023-07-13T10:00:28;22.40;99.90
17154;DHT22;8692;52.164;7.558;2023-07-13T10:03:02;22.40;99.90
17154;DHT22;8692;52.164;7.558;2023-07-13T10:05:38;22.40;99.90
17154;DHT22;8692;52.164;7.558;2023-07-13T10:08:17;22.50;99.90
17154;DHT22;8692;52.164;7.558;2023-07-13T10:10:46;22.50;99.90
17154;DHT22;8692;52.164;7.558;2023-07-13T10:13:26;22.50;99.90
17154;DHT22;8692;52.164;7.558;2023-07-13T10:15:56;22.40;99.90
17154;DHT22;8692;52.164;7.558;2023-07-13T10:18:25;22.40;99.90
17154;DHT22;8692;52.164;7.558;2023-07-13T10:21:00;22.40;99.90
17154;DHT22;8692;52.164;7.558;2023-07-13T10:24:04;22.50;99.90
17154;DHT22;8692;52.164;7.558;2023-07-13T10:26:34;22.50;99.90
17154;DHT22;8692;52.164;7.558;2023-07-13T10:29:06;22.50;99.90
17154;DHT22;8692;52.164;7.558;2023-07-13T10:31:38;22.60;99.90
17154;DHT22;8692;52.164;7.558;2023-07-13T10:34:09;22.60;99.90
17154;DHT22;8692;52.164;7.558;2023-07-13T10:36:41;22.50;99.90
17154;DHT22;8692;52.164;7.558;2023-07-13T10:39:16;22.50;99.90
17154;DHT22;8692;52.164;7.558;2023-07-13T10:41:50;22.60;99.90
17154;DHT22;8692;52.164;7.558;2023-07-13T10:44:22;22.60;99.90
17154;DHT22;8692;52.164;7.558;2023-07-13T10:46:55;22.70;99.90
17154;DHT22;8692;52.164;7.558;2023-07-13T10:49:24;22.80;99.90
17154;DHT22;8692;52.164;7.558;2023-07-13T10:51:52;22.90;99.90
17154;DHT22;8692;52.164;7.558;2023-07-13T10:54:27;22.90;99.90
17154;DHT22;8692;52.164;7.558;2023-07-13T10:57:16;22.90;99.90
17154;DHT22;8692;52.164;7.558;2023-07-13T11:00:13;23.10;99.90
17154;DHT22;8692;52.164;7.558;2023-07-13T11:02:42;23.10;99.90
17154;DHT22;8692;52.164;7.558;2023-07-13T11:05:25;23.10;99.90
17154;DHT22;8692;52.164;7.558;2023-07-13T11:07:56;23.10;99.90
17154;DHT22;8692;52.164;7.558;2023-07-13T11:10:52;23.10;99.90
17154;DHT22;8692;52.164;7.558;2023-07-13T11:13:38;23.10;99.90
17154;DHT22;8692;52.164;7.558;2023-07-13T11:16:46;23.20;99.90
17154;DHT22;8692;52.164;7.558;2023-07-13T11:19:40;23.40;99.70
17154;DHT22;8692;52.164;7.558;2023-07-13T11:22:21;23.30;98.90
17154;DHT22;8692;52.164;7.558;2023-07-13T11:24:59;23.40;99.80
17154;DHT22;8692;52.164;7.558;2023-07-13T11:27:40;23.50;98.70
17154;DHT22;8692;52.164;7.558;2023-07-13T11:30:24;23.50;97.70
17154;DHT22;8692;52.164;7.558;2023-07-13T11:33:04;23.50;98.00
17154;DHT22;8692;52.164;7.558;2023-07-13T11:35:36;23.50;98.60
17154;DHT22;8692;52.164;7.558;2023-07-13T11:38:13;23.60;96.00
17154;DHT22;8692;52.164;7.558;2023-07-13T11:40:44;23.70;95.50
17154;DHT22;8692;52.164;7.558;2023-07-13T11:43:23;23.80;95.30
17154;DHT22;8692;52.164;7.558;2023-07-13T11:45:52;23.90;96.90
17154;DHT22;8692;52.164;7.558;2023-07-13T11:48:26;24.00;94.60
17154;DHT22;8692;52.164;7.558;2023-07-13T11:50:57;24.10;94.10
17154;DHT22;8692;52.164;7.558;2023-07-13T11:53:28;24.10;93.80
17154;DHT22;8692;52.164;7.558;2023-07-13T11:55:57;24.20;93.70
17154;DHT22;8692;52.164;7.558;2023-07-13T11:58:27;24.20;93.00
17154;DHT22;8692;52.164;7.558;2023-07-13T12:00:58;24.10;91.80
17154;DHT22;8692;52.164;7.558;2023-07-13T12:03:29;24.10;92.40
17154;DHT22;8692;52.164;7.558;2023-07-13T12:05:59;23.90;91.90
17154;DHT22;8692;52.164;7.558;2023-07-13T12:08:29;23.80;92.00
17154;DHT22;8692;52.164;7.558;2023-07-13T12:10:59;23.70;92.20
17154;DHT22;8692;52.164;7.558;2023-07-13T12:13:29;23.60;94.10
17154;DHT22;8692;52.164;7.558;2023-07-13T12:15:57;23.30;97.50
17154;DHT22;8692;52.164;7.558;2023-07-13T12:18:29;23.00;99.90
17154;DHT22;8692;52.164;7.558;2023-07-13T12:20:58;22.60;99.90
17154;DHT22;8692;52.164;7.558;2023-07-13T12:23:29;22.30;99.90
17154;DHT22;8692;52.164;7.558;2023-07-13T12:26:00;22.00;99.90
17154;DHT22;8692;52.164;7.558;2023-07-13T12:28:33;21.90;99.90
17154;DHT22;8692;52.164;7.558;2023-07-13T12:31:06;21.90;99.90
17154;DHT22;8692;52.164;7.558;2023-07-13T12:33:34;21.90;99.90
17154;DHT22;8692;52.164;7.558;2023-07-13T12:36:06;22.00;99.90
17154;DHT22;8692;52.164;7.558;2023-07-13T12:38:34;21.90;99.90
17154;DHT22;8692;52.164;7.558;2023-07-13T12:41:03;21.90;99.90
17154;DHT22;8692;52.164;7.558;2023-07-13T12:43:35;21.80;99.90
17154;DHT22;8692;52.164;7.558;2023-07-13T12:46:16;21.80;99.90
17154;DHT22;8692;52.164;7.558;2023-07-13T12:48:48;21.80;99.90
17154;DHT22;8692;52.164;7.558;2023-07-13T12:51:30;21.80;99.90
17154;DHT22;8692;52.164;7.558;2023-07-13T12:54:06;21.80;99.90
17154;DHT22;8692;52.164;7.558;2023-07-13T12:56:34;21.80;99.90
17154;DHT22;8692;52.164;7.558;2023-07-13T12:59:04;21.90;99.90
17154;DHT22;8692;52.164;7.558;2023-07-13T13:01:35;22.00;99.90
17154;DHT22;8692;52.164;7.558;2023-07-13T13:04:04;22.10;99.90
17154;DHT22;8692;52.164;7.558;2023-07-13T13:06:34;22.20;99.90
17154;DHT22;8692;52.164;7.558;2023-07-13T13:09:10;22.30;99.90
17154;DHT22;8692;52.164;7.558;2023-07-13T13:11:41;22.30;99.90
17154;DHT22;8692;52.164;7.558;2023-07-13T13:14:12;22.30;99.90
17154;DHT22;8692;52.164;7.558;2023-07-13T13:16:46;22.30;99.90
17154;DHT22;8692;52.164;7.558;2023-07-13T13:19:18;22.30;99.90
17154;DHT22;8692;52.164;7.558;2023-07-13T13:21:48;22.20;99.90
17154;DHT22;8692;52.164;7.558;2023-07-13T13:24:21;22.10;99.90
17154;DHT22;8692;52.164;7.558;2023-07-13T13:26:51;22.00;99.90
17154;DHT22;8692;52.164;7.558;2023-07-13T13:29:22;22.10;99.90
17154;DHT22;8692;52.164;7.558;2023-07-13T13:31:52;21.90;99.90
17154;DHT22;8692;52.164;7.558;2023-07-13T13:34:21;21.90;99.90
17154;DHT22;8692;52.164;7.558;2023-07-13T13:36:50;21.80;99.90
17154;DHT22;8692;52.164;7.558;2023-07-13T13:39:26;21.70;99.90
17154;DHT22;8692;52.164;7.558;2023-07-13T13:41:56;21.60;99.90
17154;DHT22;8692;52.164;7.558;2023-07-13T13:44:26;21.40;99.90
17154;DHT22;8692;52.164;7.558;2023-07-13T13:46:55;21.40;99.90
17154;DHT22;8692;52.164;7.558;2023-07-13T13:49:26;21.30;99.90
17154;DHT22;8692;52.164;7.558;2023-07-13T13:51:54;21.30;99.90
17154;DHT22;8692;52.164;7.558;2023-07-13T13:54:24;21.30;99.90
17154;DHT22;8692;52.164;7.558;2023-07-13T13:56:53;21.30;99.90
17154;DHT22;8692;52.164;7.558;2023-07-13T13:59:22;21.30;99.90
17154;DHT22;8692;52.164;7.558;2023-07-13T14:01:51;21.30;99.90
17154;DHT22;8692;52.164;7.558;2023-07-13T14:04:21;21.20;99.90
17154;DHT22;8692;52.164;7.558;2023-07-13T14:06:49;21.10;99.90
17154;DHT22;8692;52.164;7.558;2023-07-13T14:09:18;21.00;99.90
17154;DHT22;8692;52.164;7.558;2023-07-13T14:11:48;21.00;99.90
17154;DHT22;8692;52.164;7.558;2023-07-13T14:14:21;20.90;99.90
17154;DHT22;8692;52.164;7.558;2023-07-13T14:16:52;20.80;99.90
17154;DHT22;8692;52.164;7.558;2023-07-13T14:19:22;20.80;99.90
17154;DHT22;8692;52.164;7.558;2023-07-13T14:21:50;20.80;99.90
17154;DHT22;8692;52.164;7.558;2023-07-13T14:24:21;20.80;99.90
17154;DHT22;8692;52.164;7.558;2023-07-13T14:26:49;20.80;99.90
17154;DHT22;8692;52.164;7.558;2023-07-13T14:29:18;20.80;99.90
17154;DHT22;8692;52.164;7.558;2023-07-13T14:31:51;20.70;99.90
17154;DHT22;8692;52.164;7.558;2023-07-13T14:34:21;20.80;99.90
17154;DHT22;8692;52.164;7.558;2023-07-13T14:36:49;20.80;99.90
17154;DHT22;8692;52.164;7.558;2023-07-13T14:39:20;20.80;99.90
17154;DHT22;8692;52.164;7.558;2023-07-13T14:41:50;20.80;99.90
17154;DHT22;8692;52.164;7.558;2023-07-13T14:44:21;20.90;99.90
17154;DHT22;8692;52.164;7.558;2023-07-13T14:46:50;20.90;99.90
17154;DHT22;8692;52.164;7.558;2023-07-13T14:49:24;20.90;99.90
17154;DHT22;8692;52.164;7.558;2023-07-13T14:51:54;20.90;99.90
17154;DHT22;8692;52.164;7.558;2023-07-13T14:54:24;20.90;99.90
17154;DHT22;8692;52.164;7.558;2023-07-13T14:56:52;20.90;99.90
17154;DHT22;8692;52.164;7.558;2023-07-13T14:59:20;20.90;99.90
17154;DHT22;8692;52.164;7.558;2023-07-13T15:01:51;21.00;99.90
17154;DHT22;8692;52.164;7.558;2023-07-13T15:04:19;21.00;99.90
17154;DHT22;8692;52.164;7.558;2023-07-13T15:06:56;21.00;99.90
17154;DHT22;8692;52.164;7.558;2023-07-13T15:09:25;21.00;99.90
17154;DHT22;8692;52.164;7.558;2023-07-13T15:11:54;20.90;99.90
17154;DHT22;8692;52.164;7.558;2023-07-13T15:14:22;21.00;99.90
17154;DHT22;8692;52.164;7.558;2023-07-13T15:16:53;21.00;99.90
17154;DHT22;8692;52.164;7.558;2023-07-13T15:19:23;21.00;99.90
17154;DHT22;8692;52.164;7.558;2023-07-13T15:21:52;21.10;99.90
17154;DHT22;8692;52.164;7.558;2023-07-13T15:24:23;21.10;99.90
17154;DHT22;8692;52.164;7.558;2023-07-13T15:26:51;21.10;99.90
17154;DHT22;8692;52.164;7.558;2023-07-13T15:29:19;21.20;99.90
17154;DHT22;8692;52.164;7.558;2023-07-13T15:31:47;21.30;99.90
17154;DHT22;8692;52.164;7.558;2023-07-13T15:34:20;21.40;99.90
17154;DHT22;8692;52.164;7.558;2023-07-13T15:36:51;21.60;99.90
17154;DHT22;8692;52.164;7.558;2023-07-13T15:39:19;21.80;99.90
17154;DHT22;8692;52.164;7.558;2023-07-13T15:41:50;22.10;99.90
17154;DHT22;8692;52.164;7.558;2023-07-13T15:44:27;22.30;99.90
17154;DHT22;8692;52.164;7.558;2023-07-13T15:46:56;22.40;99.90
17154;DHT22;8692;52.164;7.558;2023-07-13T15:49:27;22.40;99.90
17154;DHT22;8692;52.164;7.558;2023-07-13T15:51:55;22.40;99.90
17154;DHT22;8692;52.164;7.558;2023-07-13T15:54:24;22.50;99.90
17154;DHT22;8692;52.164;7.558;2023-07-13T15:56:55;22.60;99.90
17154;DHT22;8692;52.164;7.558;2023-07-13T15:59:23;22.70;99.90
17154;DHT22;8692;52.164;7.558;2023-07-13T16:01:51;22.80;99.90
17154;DHT22;8692;52.164;7.558;2023-07-13T16:04:19;22.80;99.50
17154;DHT22;8692;52.164;7.558;2023-07-13T16:06:47;22.90;98.00
17154;DHT22;8692;52.164;7.558;2023-07-13T16:09:19;23.00;99.90